Time;durP1;ratioP1;P1;durP2;ratioP2;P2;SDS_P1;SDS_P2;PMS_P1;PMS_P2;Temp;Humidity;BMP_temperature;BMP_pressure;BME280_temperature;BME280_humidity;BME280_pressure;Samples;Min_cycle;Max_cycle;Signal;HPM_P1;HPM_P2
2022/09/10 00:01:09;;;;;;;7.47;3.97;;;16.60;99.90;;;;;;5075506;28;20184;-69
2022/09/10 00:03:34;;;;;;;11.73;4.30;;;16.60;99.90;;;;;;5075178;28;20168;-69
2022/09/10 00:06:03;;;;;;;9.67;4.23;;;16.60;99.90;;;;;;5075185;28;20304;-69
2022/09/10 00:08:30;;;;;;;10.87;4.03;;;16.60;99.90;;;;;;5075182;28;20172;-70
2022/09/10 00:10:56;;;;;;;13.90;3.90;;;16.60;99.90;;;;;;5075188;28;20165;-69
2022/09/10 00:13:22;;;;;;;7.03;4.20;;;16.70;99.90;;;;;;5074564;28;20160;-69
2022/09/10 00:15:51;;;;;;;9.67;3.70;;;16.60;99.90;;;;;;5073336;28;20719;-69
2022/09/10 00:18:19;;;;;;;8.23;3.90;;;16.60;99.90;;;;;;5075034;28;20164;-70
2022/09/10 00:20:54;;;;;;;8.37;4.10;;;16.60;99.90;;;;;;5075114;28;20169;-69
2022/09/10 00:23:26;;;;;;;8.00;4.23;;;16.60;99.90;;;;;;5074892;28;20168;-69
2022/09/10 00:25:53;;;;;;;12.10;3.90;;;16.60;99.90;;;;;;5074868;28;20204;-68
2022/09/10 00:28:20;;;;;;;6.97;4.40;;;16.50;99.90;;;;;;5074399;28;20519;-68
2022/09/10 00:30:48;;;;;;;7.43;4.23;;;16.60;99.90;;;;;;5074661;28;20161;-69
2022/09/10 00:33:16;;;;;;;8.67;4.33;;;16.60;99.90;;;;;;5074541;28;20164;-69
2022/09/10 00:35:41;;;;;;;7.23;4.37;;;16.60;99.90;;;;;;5074569;28;20164;-69
2022/09/10 00:38:09;;;;;;;10.70;4.50;;;16.70;99.90;;;;;;5074465;28;20653;-69
2022/09/10 00:40:35;;;;;;;10.63;4.80;;;16.70;99.90;;;;;;5107314;28;20264;-69
2022/09/10 00:43:01;;;;;;;7.50;4.33;;;16.70;99.90;;;;;;5074064;28;20164;-70
2022/09/10 00:45:32;;;;;;;8.37;4.17;;;16.70;99.90;;;;;;5074131;28;20686;-69
2022/09/10 00:48:21;;;;;;;10.93;4.53;;;16.70;99.90;;;;;;5074357;28;20165;-69
2022/09/10 00:50:50;;;;;;;8.73;4.80;;;16.70;99.90;;;;;;5073733;28;20191;-69
2022/09/10 00:53:20;;;;;;;8.63;4.77;;;16.70;99.90;;;;;;5074318;28;20171;-68
2022/09/10 00:55:49;;;;;;;10.43;4.53;;;16.60;99.90;;;;;;5106502;28;20183;-69
2022/09/10 00:58:17;;;;;;;9.30;4.63;;;16.70;99.90;;;;;;5072964;28;20241;-68
2022/09/10 01:00:43;;;;;;;11.00;5.00;;;16.70;99.90;;;;;;5074152;28;20195;-69
2022/09/10 01:03:10;;;;;;;8.67;5.03;;;16.70;99.90;;;;;;5073956;28;20660;-70
2022/09/10 01:05:39;;;;;;;9.47;4.70;;;16.70;99.90;;;;;;5072666;28;20299;-69
2022/09/10 01:08:04;;;;;;;9.47;4.70;;;16.80;99.90;;;;;;5073960;28;20180;-69
2022/09/10 01:10:38;;;;;;;9.27;5.20;;;16.80;99.90;;;;;;5073579;28;20644;-69
2022/09/10 01:13:28;;;;;;;10.10;4.40;;;16.70;99.90;;;;;;5074175;28;20172;-69
2022/09/10 01:16:07;;;;;;;9.80;5.27;;;16.70;99.90;;;;;;5073738;28;20213;-69
2022/09/10 01:19:01;;;;;;;7.70;4.80;;;16.60;99.90;;;;;;5073690;28;20628;-69
2022/09/10 01:21:48;;;;;;;9.73;5.30;;;16.70;99.90;;;;;;5073713;28;20161;-69
2022/09/10 01:24:22;;;;;;;11.33;5.17;;;16.70;99.90;;;;;;5073281;28;20290;-69
2022/09/10 01:27:19;;;;;;;8.87;5.00;;;16.70;99.90;;;;;;5073216;28;20191;-69
2022/09/10 01:29:56;;;;;;;9.67;5.23;;;16.60;99.90;;;;;;5073640;28;20168;-69
2022/09/10 01:32:43;;;;;;;9.30;5.10;;;16.60;99.90;;;;;;5106060;28;20172;-69
2022/09/10 01:35:14;;;;;;;10.60;4.93;;;16.60;99.90;;;;;;5073546;28;20390;-69
2022/09/10 01:37:45;;;;;;;10.07;5.20;;;16.60;99.90;;;;;;5073434;28;20210;-69
2022/09/10 01:40:12;;;;;;;12.83;5.00;;;16.60;99.90;;;;;;5073147;28;20210;-69
2022/09/10 01:42:38;;;;;;;10.10;4.53;;;16.60;99.90;;;;;;5073532;28;20180;-69
2022/09/10 01:45:05;;;;;;;7.60;4.70;;;16.70;99.90;;;;;;5071960;28;20581;-69
2022/09/10 01:48:26;;;;;;;11.40;4.93;;;16.70;99.90;;;;;;5073468;28;20169;-69
2022/09/10 01:51:08;;;;;;;9.47;4.30;;;16.60;99.90;;;;;;5031397;28;20170;-69
2022/09/10 01:54:10;;;;;;;10.03;4.60;;;16.70;99.90;;;;;;5031052;28;20182;-69
2022/09/10 01:56:51;;;;;;;10.47;4.70;;;16.70;99.90;;;;;;5031392;28;20173;-69
2022/09/10 01:59:37;;;;;;;10.60;4.90;;;16.60;99.90;;;;;;5031093;28;20540;-70
2022/09/10 02:02:28;;;;;;;9.73;4.43;;;16.70;99.90;;;;;;5031095;28;20341;-70
2022/09/10 02:04:55;;;;;;;8.27;3.97;;;16.70;99.90;;;;;;5026482;28;20576;-69
2022/09/10 02:07:23;;;;;;;8.10;4.47;;;16.70;99.90;;;;;;5031100;28;20197;-68
2022/09/10 02:09:50;;;;;;;9.57;4.80;;;16.60;99.90;;;;;;5030949;28;20261;-68
2022/09/10 02:12:18;;;;;;;9.63;4.83;;;16.50;99.90;;;;;;5031003;28;20278;-68
2022/09/10 02:14:48;;;;;;;10.23;4.77;;;16.60;99.90;;;;;;5025917;28;20222;-68
2022/09/10 02:17:15;;;;;;;11.50;5.00;;;16.60;99.90;;;;;;5011208;28;20692;-69
2022/09/10 02:19:41;;;;;;;8.80;5.10;;;16.70;99.90;;;;;;5011301;28;20258;-68
2022/09/10 02:22:07;;;;;;;9.50;5.30;;;16.60;99.90;;;;;;5011279;28;20176;-68
2022/09/10 02:24:32;;;;;;;13.13;5.53;;;16.70;99.90;;;;;;5022274;28;20749;-68
2022/09/10 02:26:59;;;;;;;10.60;4.97;;;16.60;99.90;;;;;;5033050;28;20708;-68
2022/09/10 02:29:25;;;;;;;9.70;5.50;;;16.60;99.90;;;;;;5032894;28;20181;-69
2022/09/10 02:31:50;;;;;;;10.17;5.10;;;16.60;99.90;;;;;;5033185;28;20177;-69
2022/09/10 02:34:16;;;;;;;9.63;4.83;;;16.60;99.90;;;;;;5032969;28;20638;-68
2022/09/10 02:36:42;;;;;;;9.10;5.00;;;16.60;99.90;;;;;;5033006;28;20166;-68
2022/09/10 02:39:08;;;;;;;12.83;5.73;;;16.70;99.90;;;;;;5035328;28;20653;-69
2022/09/10 02:41:34;;;;;;;7.70;4.93;;;16.70;99.90;;;;;;5037253;28;20543;-69
2022/09/10 02:44:00;;;;;;;10.17;5.67;;;16.70;99.90;;;;;;5035256;28;20202;-68
2022/09/10 02:46:27;;;;;;;13.33;5.57;;;16.80;99.90;;;;;;5036884;28;20244;-68
2022/09/10 02:48:54;;;;;;;10.90;5.80;;;16.80;99.90;;;;;;5035524;28;20622;-68
2022/09/10 02:51:20;;;;;;;9.47;5.40;;;16.80;99.90;;;;;;5036742;28;20567;-69
2022/09/10 02:53:45;;;;;;;13.10;5.90;;;16.80;99.90;;;;;;5036816;28;20177;-68
2022/09/10 02:56:12;;;;;;;13.27;5.70;;;16.80;99.90;;;;;;5036520;28;20174;-67
2022/09/10 02:58:38;;;;;;;11.83;6.00;;;16.80;99.90;;;;;;5036912;28;20614;-68
2022/09/10 03:01:09;;;;;;;10.87;6.23;;;16.80;99.90;;;;;;5036546;28;20268;-67
2022/09/10 03:03:35;;;;;;;14.37;6.60;;;16.80;99.90;;;;;;5036543;28;20170;-67
2022/09/10 03:06:02;;;;;;;8.43;6.80;;;16.90;99.90;;;;;;5035957;28;20697;-68
2022/09/10 03:08:28;;;;;;;9.33;6.57;;;16.90;99.90;;;;;;5035226;28;20265;-68
2022/09/10 03:10:54;;;;;;;11.73;7.17;;;16.90;99.90;;;;;;5036550;28;20261;-69
2022/09/10 03:13:20;;;;;;;11.97;7.27;;;16.90;99.90;;;;;;5035003;28;20608;-69
2022/09/10 03:15:46;;;;;;;13.77;7.13;;;16.80;99.90;;;;;;5062877;28;20295;-68
2022/09/10 03:18:11;;;;;;;11.43;7.30;;;16.80;99.90;;;;;;5076050;28;20169;-69
2022/09/10 03:20:38;;;;;;;12.27;7.83;;;16.80;99.90;;;;;;5075711;28;20620;-69
2022/09/10 03:23:03;;;;;;;10.20;7.90;;;16.90;99.90;;;;;;5076118;28;20176;-69
2022/09/10 03:25:29;;;;;;;13.90;8.27;;;16.90;99.90;;;;;;5074607;28;20208;-69
2022/09/10 03:27:54;;;;;;;11.73;8.33;;;16.90;99.90;;;;;;5075707;28;20577;-69
2022/09/10 03:30:20;;;;;;;12.80;8.37;;;16.90;99.90;;;;;;5076096;28;20165;-69
2022/09/10 03:32:47;;;;;;;13.27;8.93;;;16.90;99.90;;;;;;5076086;28;20280;-69
2022/09/10 03:35:12;;;;;;;14.53;9.47;;;16.80;99.90;;;;;;5074543;28;20540;-69
2022/09/10 03:37:39;;;;;;;12.43;9.20;;;16.80;99.90;;;;;;5075887;28;20164;-69
2022/09/10 03:40:06;;;;;;;12.40;9.00;;;16.90;99.90;;;;;;5075639;28;20180;-69
2022/09/10 03:42:32;;;;;;;13.23;9.80;;;16.90;99.90;;;;;;5075571;28;20225;-69
2022/09/10 03:44:57;;;;;;;11.60;9.37;;;16.90;99.90;;;;;;5075502;28;20200;-69
2022/09/10 03:47:23;;;;;;;12.77;9.87;;;16.90;99.90;;;;;;5074328;28;20230;-69
2022/09/10 03:49:49;;;;;;;15.70;11.20;;;16.90;99.90;;;;;;5074461;28;20180;-68
2022/09/10 03:52:15;;;;;;;16.40;12.17;;;16.80;99.90;;;;;;5075660;28;20674;-69
2022/09/10 03:54:41;;;;;;;17.07;13.00;;;16.80;99.90;;;;;;5075398;28;20176;-68
2022/09/10 03:57:07;;;;;;;20.40;14.00;;;16.80;99.90;;;;;;5075390;28;20247;-69
2022/09/10 03:59:33;;;;;;;15.40;12.37;;;16.80;99.90;;;;;;5075213;28;20176;-69
2022/09/10 04:01:59;;;;;;;18.13;13.80;;;16.80;99.90;;;;;;5075214;28;20177;-69
2022/09/10 04:04:24;;;;;;;15.90;13.57;;;16.80;99.90;;;;;;5073559;28;20277;-68
2022/09/10 04:06:52;;;;;;;18.83;13.57;;;16.80;99.90;;;;;;5073542;28;20712;-68
2022/09/10 04:09:18;;;;;;;19.83;13.57;;;16.80;99.90;;;;;;5075246;28;20180;-68
2022/09/10 04:11:43;;;;;;;20.00;13.90;;;16.80;99.90;;;;;;5073614;28;20177;-68
2022/09/10 04:14:09;;;;;;;17.67;13.07;;;16.80;99.90;;;;;;5074590;28;20632;-68
2022/09/10 04:16:34;;;;;;;17.03;14.20;;;16.80;99.90;;;;;;5075012;28;20184;-68
2022/09/10 04:19:00;;;;;;;18.23;15.17;;;16.80;99.90;;;;;;5074557;28;20259;-68
2022/09/10 04:21:26;;;;;;;22.10;15.67;;;16.80;99.90;;;;;;5074768;28;20177;-68
2022/09/10 04:23:55;;;;;;;22.50;15.67;;;16.80;99.90;;;;;;5074412;28;20226;-68
2022/09/10 04:26:21;;;;;;;19.37;15.23;;;16.80;99.90;;;;;;5074211;28;20172;-69
2022/09/10 04:28:48;;;;;;;20.17;17.10;;;16.70;99.90;;;;;;5074813;28;20165;-69
2022/09/10 04:31:13;;;;;;;20.90;17.33;;;16.70;99.90;;;;;;5074495;28;20172;-69
2022/09/10 04:33:39;;;;;;;21.30;16.33;;;16.70;99.90;;;;;;5074603;28;20175;-69
2022/09/10 04:36:05;;;;;;;20.70;17.40;;;16.70;99.90;;;;;;5074473;28;20177;-69
2022/09/10 04:38:31;;;;;;;21.57;16.53;;;16.70;99.90;;;;;;5074438;28;20185;-69
2022/09/10 04:40:59;;;;;;;26.43;17.27;;;16.80;99.90;;;;;;5074026;28;20306;-69
2022/09/10 04:43:25;;;;;;;22.47;18.33;;;16.80;99.90;;;;;;5074313;28;20636;-69
2022/09/10 04:45:51;;;;;;;21.77;18.53;;;16.80;99.90;;;;;;5074324;28;20253;-69
2022/09/10 04:48:17;;;;;;;24.73;19.50;;;16.80;99.90;;;;;;5074088;28;20168;-69
2022/09/10 04:50:43;;;;;;;23.97;20.10;;;16.80;99.90;;;;;;5074165;28;20173;-69
2022/09/10 04:53:08;;;;;;;24.13;20.60;;;16.80;99.90;;;;;;5073940;28;20188;-69
2022/09/10 04:55:38;;;;;;;22.13;19.17;;;16.80;99.90;;;;;;5073676;28;20198;-69
2022/09/10 04:58:04;;;;;;;26.23;21.20;;;16.80;99.90;;;;;;5074201;28;20247;-69
2022/09/10 05:00:30;;;;;;;24.43;19.67;;;16.90;99.90;;;;;;5073625;28;20164;-69
2022/09/10 05:02:56;;;;;;;27.07;20.83;;;17.00;99.90;;;;;;5073470;28;20168;-69
2022/09/10 05:05:21;;;;;;;27.07;21.60;;;16.90;99.90;;;;;;5073952;28;20534;-69
2022/09/10 05:07:47;;;;;;;28.87;22.43;;;16.80;99.90;;;;;;5074047;28;20682;-69
2022/09/10 05:10:14;;;;;;;29.73;22.73;;;16.80;99.90;;;;;;5072208;28;20184;-69
2022/09/10 05:12:39;;;;;;;27.13;22.33;;;16.80;99.90;;;;;;5073437;28;20180;-69
2022/09/10 05:15:06;;;;;;;28.00;22.50;;;16.80;99.90;;;;;;5073470;28;20671;-70
2022/09/10 05:17:32;;;;;;;26.17;21.97;;;16.80;99.90;;;;;;5073138;28;20624;-69
2022/09/10 05:19:58;;;;;;;28.77;22.90;;;16.80;99.90;;;;;;5073770;28;20583;-69
2022/09/10 05:22:24;;;;;;;29.57;22.67;;;16.80;99.90;;;;;;5072372;28;20652;-69
2022/09/10 05:24:50;;;;;;;30.27;23.83;;;16.80;99.90;;;;;;5073389;28;20212;-68
2022/09/10 05:27:15;;;;;;;36.03;25.13;;;16.80;99.90;;;;;;5071982;28;20596;-69
2022/09/10 05:29:42;;;;;;;31.00;24.17;;;16.80;99.90;;;;;;5072273;28;20175;-69
2022/09/10 05:32:08;;;;;;;28.03;23.47;;;16.80;99.90;;;;;;5073427;28;20171;-69
2022/09/10 05:34:34;;;;;;;29.77;22.80;;;16.80;99.90;;;;;;5073451;28;20172;-69
2022/09/10 05:37:00;;;;;;;30.57;24.43;;;16.70;99.90;;;;;;5073256;28;20632;-69
2022/09/10 05:39:25;;;;;;;31.10;25.07;;;16.80;99.90;;;;;;5073205;28;20303;-69
2022/09/10 05:41:51;;;;;;;30.67;24.17;;;16.80;99.90;;;;;;5072761;28;20176;-69
2022/09/10 05:44:17;;;;;;;31.33;23.27;;;16.80;99.90;;;;;;5073399;28;20228;-69
2022/09/10 05:46:43;;;;;;;29.67;23.43;;;16.70;99.90;;;;;;5072793;28;20168;-69
2022/09/10 05:49:11;;;;;;;28.90;24.33;;;16.70;99.90;;;;;;5072837;28;20183;-69
2022/09/10 05:51:36;;;;;;;33.03;24.60;;;16.80;99.90;;;;;;5072864;28;20168;-69
2022/09/10 05:54:02;;;;;;;30.23;24.17;;;16.80;99.90;;;;;;5072613;28;20168;-69
2022/09/10 05:56:28;;;;;;;32.07;24.33;;;16.80;99.90;;;;;;5071801;28;20608;-69
2022/09/10 05:58:53;;;;;;;28.33;22.40;;;16.80;99.90;;;;;;5072958;28;20588;-69
2022/09/10 06:01:19;;;;;;;29.10;23.23;;;16.80;99.90;;;;;;5071282;28;20176;-69
2022/09/10 06:03:45;;;;;;;29.23;23.57;;;16.80;99.90;;;;;;5072763;28;20192;-70
2022/09/10 06:06:11;;;;;;;29.07;23.83;;;16.80;99.90;;;;;;5072695;28;20634;-69
2022/09/10 06:08:38;;;;;;;29.90;23.70;;;16.90;99.90;;;;;;5073050;28;20209;-69
2022/09/10 06:11:05;;;;;;;28.87;24.37;;;16.90;99.90;;;;;;5072397;28;20184;-69
2022/09/10 06:13:32;;;;;;;29.37;24.00;;;17.00;99.90;;;;;;5072509;28;20207;-69
2022/09/10 06:15:58;;;;;;;33.30;23.97;;;17.00;99.90;;;;;;5072322;28;20220;-69
2022/09/10 06:18:24;;;;;;;29.97;22.93;;;17.10;99.90;;;;;;5072730;28;20169;-69
2022/09/10 06:21:20;;;;;;;30.93;23.97;;;17.00;99.90;;;;;;5072612;28;20604;-69
2022/09/10 06:23:46;;;;;;;29.67;23.17;;;17.10;99.90;;;;;;5072346;28;20184;-69
2022/09/10 06:26:14;;;;;;;27.20;21.47;;;16.90;99.90;;;;;;5072600;28;20215;-69
2022/09/10 06:28:40;;;;;;;26.37;21.90;;;16.90;99.90;;;;;;5071900;28;20620;-69
2022/09/10 06:31:06;;;;;;;26.40;22.20;;;16.90;99.90;;;;;;5072467;28;20176;-69
2022/09/10 06:33:33;;;;;;;27.47;22.23;;;16.90;99.90;;;;;;5072365;28;20188;-69
2022/09/10 06:36:00;;;;;;;28.53;22.33;;;16.90;99.90;;;;;;5072495;28;20271;-69
2022/09/10 06:38:32;;;;;;;27.70;21.53;;;17.00;99.90;;;;;;5072540;28;20192;-70
2022/09/10 06:40:59;;;;;;;26.47;21.73;;;17.00;99.90;;;;;;5071932;28;20248;-69
2022/09/10 06:43:26;;;;;;;26.67;21.73;;;17.00;99.90;;;;;;5072346;28;20177;-68
2022/09/10 06:45:53;;;;;;;27.43;21.23;;;17.10;99.90;;;;;;5072041;28;20208;-70
2022/09/10 06:48:20;;;;;;;26.70;21.43;;;17.10;99.90;;;;;;5072666;28;20247;-70
2022/09/10 06:50:59;;;;;;;27.47;21.37;;;17.10;99.90;;;;;;5071250;28;20297;-70
2022/09/10 06:53:27;;;;;;;25.53;20.97;;;17.10;99.90;;;;;;5072252;28;20670;-70
2022/09/10 06:55:53;;;;;;;26.37;21.00;;;17.10;99.90;;;;;;5072346;28;20203;-69
2022/09/10 06:58:22;;;;;;;24.00;19.67;;;17.10;99.90;;;;;;5071465;28;20172;-69
2022/09/10 07:00:49;;;;;;;31.30;20.73;;;17.10;99.90;;;;;;5072158;28;20188;-69
2022/09/10 07:03:16;;;;;;;22.77;20.27;;;17.10;99.90;;;;;;5072479;28;20186;-70
2022/09/10 07:05:44;;;;;;;23.20;19.70;;;17.20;99.90;;;;;;5071916;28;20642;-69
2022/09/10 07:08:14;;;;;;;28.20;20.23;;;17.30;99.90;;;;;;5070534;28;20243;-69
2022/09/10 07:10:43;;;;;;;23.83;19.97;;;17.40;99.90;;;;;;5071111;28;20215;-69
2022/09/10 07:13:11;;;;;;;21.67;18.57;;;17.50;99.90;;;;;;5071870;28;20179;-69
2022/09/10 07:15:45;;;;;;;24.53;19.13;;;17.60;99.90;;;;;;5071863;28;20216;-69
2022/09/10 07:18:15;;;;;;;27.13;18.77;;;17.60;99.90;;;;;;5072487;28;20167;-69
2022/09/10 07:20:42;;;;;;;21.53;19.10;;;17.50;99.90;;;;;;5072513;28;20172;-68
2022/09/10 07:23:12;;;;;;;22.90;18.97;;;17.50;99.90;;;;;;5070363;28;20176;-69
2022/09/10 07:25:38;;;;;;;25.63;19.43;;;17.40;99.90;;;;;;5074484;28;20204;-69
2022/09/10 07:28:05;;;;;;;25.53;19.47;;;17.50;99.90;;;;;;5075404;28;20169;-70
2022/09/10 07:30:31;;;;;;;22.43;18.53;;;17.40;99.90;;;;;;5075595;28;20215;-69
2022/09/10 07:32:57;;;;;;;25.60;18.53;;;17.40;99.90;;;;;;5075620;28;20185;-70
2022/09/10 07:35:24;;;;;;;24.27;18.83;;;17.50;99.90;;;;;;5075255;28;20192;-70
2022/09/10 07:37:49;;;;;;;22.33;18.53;;;17.70;99.90;;;;;;5075229;28;20255;-70
2022/09/10 07:40:15;;;;;;;23.27;18.03;;;17.80;99.90;;;;;;5075793;28;20259;-70
2022/09/10 07:42:42;;;;;;;20.30;18.07;;;17.90;99.90;;;;;;5074933;28;20739;-70
2022/09/10 07:45:14;;;;;;;21.40;17.07;;;18.00;99.90;;;;;;5074766;28;20212;-69
2022/09/10 07:47:40;;;;;;;21.07;17.77;;;18.00;99.90;;;;;;5075233;28;20168;-70
2022/09/10 07:50:06;;;;;;;22.00;16.93;;;18.00;99.90;;;;;;5075273;28;20656;-70
2022/09/10 07:52:33;;;;;;;19.33;16.67;;;18.00;99.90;;;;;;5074890;28;20252;-70
2022/09/10 07:54:59;;;;;;;21.95;17.08;;;18.10;99.90;;;;;;5074545;28;20222;-69
2022/09/10 07:57:25;;;;;;;20.00;16.63;;;18.10;99.90;;;;;;5074618;28;20175;-70
2022/09/10 07:59:52;;;;;;;24.13;16.23;;;18.10;99.90;;;;;;5075143;28;20557;-70
2022/09/10 08:02:19;;;;;;;17.52;15.35;;;18.20;99.90;;;;;;5073465;28;20191;-70
2022/09/10 08:04:45;;;;;;;19.48;16.08;;;18.40;99.90;;;;;;5074938;28;20652;-69
2022/09/10 08:07:11;;;;;;;27.50;16.80;;;18.60;99.90;;;;;;5074315;28;20184;-70
2022/09/10 08:09:37;;;;;;;22.58;16.77;;;18.60;99.90;;;;;;5074449;28;20206;-69
2022/09/10 08:12:06;;;;;;;18.38;16.48;;;18.50;99.90;;;;;;5072169;28;20534;-70
2022/09/10 08:14:32;;;;;;;21.83;17.10;;;18.40;99.90;;;;;;5074701;28;20196;-71
2022/09/10 08:17:00;;;;;;;19.37;16.70;;;18.20;99.90;;;;;;5074398;28;20224;-69
2022/09/10 08:19:25;;;;;;;21.08;17.33;;;18.30;99.90;;;;;;5074677;28;20172;-69
2022/09/10 08:21:51;;;;;;;19.48;16.70;;;18.40;99.90;;;;;;5074948;28;20183;-69
2022/09/10 08:24:17;;;;;;;20.23;16.90;;;18.50;99.90;;;;;;5074372;28;20204;-71
2022/09/10 08:26:43;;;;;;;21.13;16.30;;;18.30;99.90;;;;;;5073754;28;20172;-70
2022/09/10 08:29:08;;;;;;;21.27;17.45;;;18.50;99.90;;;;;;5074349;28;20164;-70
2022/09/10 08:31:34;;;;;;;22.27;16.50;;;18.60;99.90;;;;;;5072951;28;20275;-70
2022/09/10 08:34:00;;;;;;;18.55;15.77;;;18.60;99.90;;;;;;5073191;28;20173;-70
2022/09/10 08:36:26;;;;;;;19.75;16.55;;;18.70;99.90;;;;;;5074440;28;20172;-70
2022/09/10 08:38:53;;;;;;;22.48;16.42;;;18.70;99.90;;;;;;5074458;28;20176;-70
2022/09/10 08:41:37;;;;;;;16.70;14.88;;;18.70;99.90;;;;;;5071973;28;20180;-69
2022/09/10 08:44:09;;;;;;;20.10;15.18;;;19.00;99.90;;;;;;5073480;28;20233;-71
2022/09/10 08:46:48;;;;;;;21.95;15.13;;;18.90;99.90;;;;;;5074107;28;20169;-70
2022/09/10 08:49:16;;;;;;;17.23;14.77;;;19.00;99.90;;;;;;5073873;28;20165;-70
2022/09/10 08:52:12;;;;;;;20.98;15.60;;;19.20;99.90;;;;;;5073906;28;20195;-70
2022/09/10 08:54:46;;;;;;;17.05;13.80;;;19.20;97.40;;;;;;5031091;28;20641;-70
2022/09/10 08:57:38;;;;;;;18.05;13.52;;;19.20;95.50;;;;;;5031698;28;20173;-70
2022/09/10 09:00:09;;;;;;;14.88;13.43;;;19.20;96.00;;;;;;5031592;28;20568;-69
2022/09/10 09:02:38;;;;;;;16.13;13.00;;;19.20;91.60;;;;;;5031498;28;20166;-70
2022/09/10 09:05:14;;;;;;;17.05;13.05;;;19.20;89.80;;;;;;5031249;28;20217;-71
2022/09/10 09:07:40;;;;;;;13.60;12.18;;;19.30;91.30;;;;;;5031307;28;20177;-71
2022/09/10 09:10:40;;;;;;;17.23;11.77;;;19.20;89.90;;;;;;5030941;28;20806;-69
2022/09/10 09:13:33;;;;;;;16.90;11.98;;;19.30;86.80;;;;;;5030494;28;20257;-69
2022/09/10 09:16:04;;;;;;;15.50;10.38;;;19.40;70.10;;;;;;5030362;28;20217;-70
2022/09/10 09:18:51;;;;;;;14.15;10.82;;;19.50;64.10;;;;;;5030709;28;20186;-70
2022/09/10 09:21:42;;;;;;;13.40;10.48;;;19.80;68.80;;;;;;5031519;28;20279;-71
2022/09/10 09:24:28;;;;;;;20.27;10.52;;;20.20;47.90;;;;;;5030774;28;20189;-70
2022/09/10 09:27:00;;;;;;;13.85;9.60;;;20.90;29.30;;;;;;5031225;28;20177;-71
2022/09/10 09:29:50;;;;;;;11.50;9.25;;;21.50;1.00;;;;;;5031234;28;20669;-71
2022/09/10 09:32:19;;;;;;;12.00;8.60;;;22.30;1.00;;;;;;5068016;28;20222;-71
2022/09/10 09:34:49;;;;;;;12.10;8.82;;;22.90;1.00;;;;;;5073056;28;20160;-71
2022/09/10 09:37:28;;;;;;;8.80;8.00;;;22.80;1.00;;;;;;5071001;28;20198;-71
2022/09/10 09:40:03;;;;;;;11.88;8.38;;;22.70;1.00;;;;;;5073016;28;20302;-71
2022/09/10 09:42:43;;;;;;;10.73;8.65;;;22.60;1.00;;;;;;5072849;28;20172;-71
2022/09/10 09:45:34;;;;;;;12.63;8.30;;;22.20;1.00;;;;;;5072982;28;20208;-72
2022/09/10 09:48:00;;;;;;;12.38;8.32;;;22.30;1.00;;;;;;5072007;28;20176;-72
2022/09/10 09:50:30;;;;;;;7.95;7.15;;;22.60;1.00;;;;;;5104816;28;20264;-72
2022/09/10 09:52:56;;;;;;;10.35;7.95;;;22.70;1.00;;;;;;5071865;28;20168;-72
2022/09/10 09:55:45;;;;;;;7.80;6.72;;;23.00;1.00;;;;;;5072290;28;20176;-71
2022/09/10 09:58:20;;;;;;;7.78;7.00;;;23.30;1.00;;;;;;5072685;28;20538;-71
2022/09/10 10:01:17;;;;;;;9.75;6.57;;;23.40;1.00;;;;;;5072306;28;20234;-72
2022/09/10 10:03:52;;;;;;;7.13;5.75;;;24.20;1.00;;;;;;5072302;28;20636;-71
2022/09/10 10:06:30;;;;;;;6.85;5.57;;;24.80;1.00;;;;;;5072192;28;20226;-72
2022/09/10 10:09:05;;;;;;;8.43;5.10;;;25.10;1.00;;;;;;5072207;28;20169;-70
2022/09/10 10:11:45;;;;;;;9.57;5.10;;;26.00;1.00;;;;;;5071561;28;20573;-70
2022/09/10 10:14:21;;;;;;;6.93;4.90;;;26.20;1.00;;;;;;5072449;28;20176;-70
2022/09/10 10:16:52;;;;;;;7.03;4.57;;;25.70;1.00;;;;;;5072007;28;20331;-70
2022/09/10 10:19:33;;;;;;;5.70;4.22;;;25.70;99.90;;;;;;5071323;28;20644;-72
2022/09/10 10:22:15;;;;;;;6.38;4.07;;;26.10;99.90;;;;;;5071674;28;20172;-71
2022/09/10 10:24:42;;;;;;;5.72;3.83;;;26.10;99.90;;;;;;5071141;28;20287;-71
2022/09/10 10:27:31;;;;;;;4.65;3.83;;;25.50;99.90;;;;;;5072003;28;20261;-71
2022/09/10 10:30:00;;;;;;;4.47;3.80;;;24.70;1.00;;;;;;5072735;28;20196;-72
2022/09/10 10:32:46;;;;;;;5.47;4.00;;;24.50;24.10;;;;;;5072338;28;20196;-72
2022/09/10 10:35:19;;;;;;;5.25;4.05;;;24.90;99.90;;;;;;5070549;28;20195;-71
2022/09/10 10:38:09;;;;;;;5.22;3.58;;;25.10;1.00;;;;;;5072675;28;20172;-71
2022/09/10 10:40:44;;;;;;;4.55;3.50;;;25.60;41.80;;;;;;5072515;28;20240;-71
2022/09/10 10:43:46;;;;;;;5.60;3.72;;;25.20;1.00;;;;;;5072255;28;20286;-73
2022/09/10 10:46:26;;;;;;;4.97;3.70;;;24.70;1.00;;;;;;5071406;28;20200;-72
2022/09/10 10:48:57;;;;;;;6.90;3.95;;;24.30;1.00;;;;;;5071899;28;20194;-73
2022/09/10 10:51:48;;;;;;;5.80;4.32;;;24.20;99.90;;;;;;5071690;28;20169;-72
2022/09/10 10:54:36;;;;;;;5.05;4.20;;;23.40;1.00;;;;;;5071761;28;20161;-72
2022/09/10 10:57:35;;;;;;;8.18;4.80;;;23.10;1.00;;;;;;5072075;28;20234;-72
2022/09/10 11:00:06;;;;;;;7.60;4.70;;;23.70;1.00;;;;;;5073858;28;20187;-72
2022/09/10 11:02:57;;;;;;;6.50;4.50;;;23.90;1.00;;;;;;5075687;28;20666;-71
2022/09/10 11:05:40;;;;;;;6.80;4.32;;;23.90;1.00;;;;;;5075645;28;20219;-72
2022/09/10 11:08:14;;;;;;;5.47;4.20;;;24.70;1.00;;;;;;5075524;28;20562;-73
2022/09/10 11:10:53;;;;;;;6.32;4.38;;;25.10;24.10;;;;;;5075521;28;20188;-73
2022/09/10 11:13:37;;;;;;;4.57;4.03;;;24.70;1.00;;;;;;5074954;28;20168;-72
2022/09/10 11:16:11;;;;;;;8.00;4.40;;;24.60;99.90;;;;;;5075557;28;20266;-72
2022/09/10 11:18:50;;;;;;;5.95;4.47;;;24.20;99.90;;;;;;5075644;28;20168;-72
2022/09/10 11:21:25;;;;;;;5.28;4.20;;;23.80;1.00;;;;;;5074011;28;20168;-71
2022/09/10 11:24:02;;;;;;;7.30;5.03;;;23.50;1.00;;;;;;5074809;28;20538;-72
2022/09/10 11:27:04;;;;;;;10.20;4.72;;;23.00;1.00;;;;;;5073861;28;20238;-71
2022/09/10 11:29:58;;;;;;;4.43;4.13;;;23.10;1.00;;;;;;5067862;28;20194;-71
2022/09/10 11:32:33;;;;;;;7.43;3.95;;;23.30;1.00;;;;;;5074741;28;20203;-73
2022/09/10 11:35:02;;;;;;;6.88;4.40;;;23.40;1.00;;;;;;5074844;28;20727;-71
2022/09/10 11:37:56;;;;;;;5.75;4.22;;;23.10;1.00;;;;;;5074963;28;20173;-72
2022/09/10 11:40:30;;;;;;;6.88;4.10;;;23.00;1.00;;;;;;5074949;28;20200;-73
2022/09/10 11:43:02;;;;;;;6.40;3.67;;;23.00;1.00;;;;;;5074794;28;20171;-72
2022/09/10 11:45:37;;;;;;;5.40;3.38;;;23.10;1.00;;;;;;5074986;28;20208;-71
2022/09/10 11:48:28;;;;;;;5.30;4.28;;;23.30;1.00;;;;;;5074690;28;20182;-73
2022/09/10 11:51:00;;;;;;;3.90;3.20;;;23.40;1.00;;;;;;5074846;28;20296;-71
2022/09/10 11:53:27;;;;;;;4.85;3.72;;;23.00;1.00;;;;;;5074877;28;20160;-72
2022/09/10 11:56:12;;;;;;;5.00;3.60;;;22.90;1.00;;;;;;5075258;28;20261;-71
2022/09/10 11:58:59;;;;;;;7.60;4.10;;;22.90;1.00;;;;;;5073452;28;20195;-73
2022/09/10 12:01:43;;;;;;;11.73;5.53;;;22.60;1.00;;;;;;5074867;28;20173;-70
2022/09/10 12:04:12;;;;;;;9.05;5.70;;;22.30;1.00;;;;;;5073663;28;20172;-70
2022/09/10 12:07:17;;;;;;;10.27;5.97;;;21.60;20.40;;;;;;5074070;28;20218;-70
2022/09/10 12:09:42;;;;;;;10.65;6.30;;;21.30;42.30;;;;;;5074055;28;20169;-71
2022/09/10 12:12:16;;;;;;;9.77;5.93;;;21.10;36.80;;;;;;5074481;28;20589;-71
2022/09/10 12:14:42;;;;;;;6.75;5.55;;;21.10;44.80;;;;;;5074539;28;20204;-71
2022/09/10 12:17:08;;;;;;;6.65;4.07;;;21.10;44.20;;;;;;5073354;28;20520;-72
2022/09/10 12:19:38;;;;;;;5.05;3.83;;;21.10;1.00;;;;;;5074794;28;20210;-72
2022/09/10 12:22:24;;;;;;;5.88;4.05;;;21.30;2.80;;;;;;5073376;28;20180;-72
2022/09/10 12:24:54;;;;;;;7.07;3.67;;;21.60;1.00;;;;;;5073381;28;20232;-71
2022/09/10 12:27:20;;;;;;;4.78;2.85;;;22.00;1.00;;;;;;5074054;28;20169;-71
2022/09/10 12:29:46;;;;;;;3.25;2.80;;;22.00;1.00;;;;;;5072468;28;20183;-71
2022/09/10 12:32:18;;;;;;;4.95;2.92;;;21.80;1.00;;;;;;5073838;28;20225;-71
2022/09/10 12:34:47;;;;;;;5.28;2.70;;;21.70;1.00;;;;;;5073182;28;20161;-71
2022/09/10 12:37:26;;;;;;;6.00;3.03;;;21.80;1.00;;;;;;5072692;28;20169;-71
2022/09/10 12:40:24;;;;;;;3.83;2.70;;;22.00;1.00;;;;;;5073534;28;20651;-71
2022/09/10 12:42:50;;;;;;;2.67;2.42;;;22.10;1.00;;;;;;5031249;28;20226;-71
2022/09/10 12:45:54;;;;;;;5.05;2.78;;;22.40;1.00;;;;;;5030881;28;20230;-70
2022/09/10 12:48:21;;;;;;;3.28;2.40;;;22.40;1.00;;;;;;5031898;28;20193;-70
2022/09/10 12:50:55;;;;;;;6.00;2.67;;;22.30;1.00;;;;;;5031260;28;20177;-72
2022/09/10 12:53:40;;;;;;;2.63;2.10;;;22.30;1.00;;;;;;5031401;28;20224;-72
2022/09/10 12:56:30;;;;;;;5.53;2.60;;;22.10;1.00;;;;;;5031669;28;20169;-70
2022/09/10 12:59:33;;;;;;;3.85;2.40;;;21.70;1.00;;;;;;5031640;28;20265;-71
2022/09/10 13:01:59;;;;;;;2.78;2.28;;;21.50;1.00;;;;;;5030983;28;20174;-70